Time;durP1;ratioP1;P1;durP2;ratioP2;P2;SDS_P1;SDS_P2;PMS_P1;PMS_P2;Temp;Humidity;BMP_temperature;BMP_pressure;BME280_temperature;BME280_humidity;BME280_pressure;Samples;Min_cycle;Max_cycle;Signal;HPM_P1;HPM_P2
2021/10/03 00:00:19;;;;;;;4.95;2.00;;;19.10;68.60;;;;;;5045548;28;20143;-80
2021/10/03 00:02:51;;;;;;;4.03;1.90;;;19.10;69.50;;;;;;5042866;28;20124;-79
2021/10/03 00:05:20;;;;;;;3.67;2.03;;;19.00;70.00;;;;;;5043787;28;20080;-79
2021/10/03 00:07:50;;;;;;;4.32;1.95;;;19.00;69.40;;;;;;5046390;28;20123;-79
2021/10/03 00:10:19;;;;;;;3.30;1.73;;;18.90;68.40;;;;;;5044130;28;20124;-80
2021/10/03 00:12:49;;;;;;;3.50;1.77;;;18.90;69.50;;;;;;5042207;28;20120;-79
2021/10/03 00:15:19;;;;;;;3.90;1.83;;;18.80;68.50;;;;;;5043321;28;20136;-79
2021/10/03 00:17:48;;;;;;;3.72;2.03;;;18.90;69.20;;;;;;5046292;28;20132;-79
2021/10/03 00:20:17;;;;;;;3.72;1.92;;;18.80;69.70;;;;;;5044949;28;20048;-81
2021/10/03 00:22:44;;;;;;;3.63;2.08;;;18.80;71.30;;;;;;5042861;28;20101;-78
2021/10/03 00:25:13;;;;;;;3.92;1.95;;;18.70;71.50;;;;;;5042474;28;20080;-81
2021/10/03 00:27:41;;;;;;;4.68;2.20;;;18.70;72.40;;;;;;5042639;28;20067;-80
2021/10/03 00:30:11;;;;;;;3.70;2.10;;;18.60;74.20;;;;;;5042734;28;20125;-79
2021/10/03 00:32:39;;;;;;;3.55;2.08;;;18.50;74.70;;;;;;5037060;28;20129;-79
2021/10/03 00:35:07;;;;;;;3.33;2.05;;;18.30;74.50;;;;;;5042260;28;20128;-80
2021/10/03 00:37:34;;;;;;;5.35;2.00;;;18.30;75.50;;;;;;5042086;28;20132;-78
2021/10/03 00:40:02;;;;;;;3.60;1.80;;;18.20;74.70;;;;;;5042179;28;20132;-79
2021/10/03 00:42:29;;;;;;;4.95;2.28;;;18.20;73.90;;;;;;5044741;28;20136;-79
2021/10/03 00:44:56;;;;;;;4.38;2.50;;;18.20;77.20;;;;;;5045631;28;20037;-79
2021/10/03 00:47:24;;;;;;;5.35;2.40;;;18.10;78.10;;;;;;5043335;28;20153;-79
2021/10/03 00:49:51;;;;;;;4.65;1.85;;;18.00;77.50;;;;;;5041641;28;20132;-79
2021/10/03 00:52:19;;;;;;;5.65;2.75;;;18.00;76.90;;;;;;5042847;28;20057;-81
2021/10/03 00:54:46;;;;;;;4.68;2.05;;;18.00;78.80;;;;;;5046857;28;20128;-80
2021/10/03 00:57:13;;;;;;;3.75;2.10;;;17.90;77.80;;;;;;5042382;28;20163;-78
2021/10/03 00:59:40;;;;;;;3.90;2.10;;;17.80;78.40;;;;;;5045203;28;20132;-79
2021/10/03 01:02:07;;;;;;;4.22;1.90;;;17.80;77.10;;;;;;5044980;28;20132;-78
2021/10/03 01:04:36;;;;;;;3.80;1.98;;;17.80;75.80;;;;;;5041542;28;20124;-78
2021/10/03 01:07:04;;;;;;;3.70;1.90;;;17.90;74.50;;;;;;5041581;28;20121;-80
2021/10/03 01:09:31;;;;;;;3.88;1.90;;;17.90;73.00;;;;;;5042090;28;20088;-79
2021/10/03 01:11:58;;;;;;;3.40;1.50;;;18.00;73.80;;;;;;5041551;28;20550;-79
2021/10/03 01:14:25;;;;;;;4.05;2.20;;;18.00;73.50;;;;;;5043412;28;20041;-79
2021/10/03 01:16:53;;;;;;;4.07;1.90;;;18.00;75.50;;;;;;5044970;28;20123;-79
2021/10/03 01:19:20;;;;;;;3.78;1.77;;;18.00;75.80;;;;;;5043164;28;20478;-79
2021/10/03 01:21:49;;;;;;;3.50;1.90;;;17.90;75.00;;;;;;5041457;28;20124;-79
2021/10/03 01:24:16;;;;;;;3.22;1.75;;;17.90;75.80;;;;;;5042318;28;20128;-79
2021/10/03 01:26:44;;;;;;;3.92;2.33;;;17.90;74.70;;;;;;5045068;28;20127;-79
2021/10/03 01:29:12;;;;;;;5.45;2.55;;;17.90;76.40;;;;;;5044213;28;20131;-79
2021/10/03 01:31:39;;;;;;;3.40;1.90;;;17.80;77.00;;;;;;5041159;28;20077;-79
2021/10/03 01:34:06;;;;;;;3.40;1.90;;;17.80;76.00;;;;;;5041149;28;20120;-80
2021/10/03 01:36:33;;;;;;;3.88;1.70;;;17.80;77.00;;;;;;5044128;28;20462;-79
2021/10/03 01:39:02;;;;;;;3.80;1.80;;;17.70;75.90;;;;;;5044667;28;20094;-79
2021/10/03 01:41:29;;;;;;;4.30;2.08;;;17.70;75.30;;;;;;5041501;28;20045;-79
2021/10/03 01:43:56;;;;;;;3.28;1.77;;;17.70;78.80;;;;;;5041177;28;20128;-80
2021/10/03 01:46:24;;;;;;;3.63;1.92;;;17.70;78.80;;;;;;5042870;28;20128;-79
2021/10/03 01:48:51;;;;;;;3.92;2.00;;;17.70;78.00;;;;;;5044436;28;20047;-79
2021/10/03 01:51:19;;;;;;;3.53;2.00;;;17.60;78.70;;;;;;5042582;28;20406;-79
2021/10/03 01:53:50;;;;;;;3.28;1.70;;;17.60;78.00;;;;;;5044434;28;20044;-79
2021/10/03 01:56:21;;;;;;;3.35;1.95;;;17.50;77.90;;;;;;5043237;28;20462;-79
2021/10/03 01:58:52;;;;;;;3.42;1.83;;;17.60;79.00;;;;;;5040876;28;20124;-80
2021/10/03 02:01:24;;;;;;;3.45;1.90;;;17.60;80.80;;;;;;5042143;28;20132;-79
2021/10/03 02:03:51;;;;;;;3.40;1.92;;;17.50;81.30;;;;;;5044309;28;20183;-79
2021/10/03 02:06:19;;;;;;;4.20;2.20;;;17.50;81.40;;;;;;5042921;28;20482;-79
2021/10/03 02:08:51;;;;;;;4.00;2.10;;;17.40;82.30;;;;;;5040702;28;20049;-77
2021/10/03 02:11:19;;;;;;;4.25;2.40;;;17.40;83.20;;;;;;5041987;28;20107;-79
2021/10/03 02:13:47;;;;;;;4.30;2.40;;;17.30;84.30;;;;;;5044099;28;20501;-79
2021/10/03 02:16:14;;;;;;;3.95;2.30;;;17.30;84.60;;;;;;5043417;28;20135;-79
2021/10/03 02:18:45;;;;;;;4.45;2.60;;;17.30;85.40;;;;;;5040239;28;20065;-79
2021/10/03 02:21:13;;;;;;;4.35;2.55;;;17.20;86.30;;;;;;5042012;28;20045;-79
2021/10/03 02:23:41;;;;;;;5.43;2.97;;;17.10;87.50;;;;;;5047984;28;20124;-80
2021/10/03 02:26:09;;;;;;;3.95;2.40;;;17.10;88.40;;;;;;5040688;28;20041;-79
2021/10/03 02:28:37;;;;;;;4.05;2.50;;;17.10;89.40;;;;;;5040519;28;20136;-79
2021/10/03 02:31:08;;;;;;;4.03;2.60;;;17.00;90.20;;;;;;5040835;28;20550;-79
2021/10/03 02:33:36;;;;;;;4.88;2.92;;;16.90;90.40;;;;;;5037716;28;20041;-79
2021/10/03 02:36:05;;;;;;;4.50;2.67;;;16.90;90.80;;;;;;5048172;28;20037;-80
2021/10/03 02:38:32;;;;;;;5.22;2.83;;;16.90;91.20;;;;;;5044998;28;20140;-80
2021/10/03 02:41:01;;;;;;;4.53;2.78;;;16.80;91.30;;;;;;5044447;28;20137;-79
2021/10/03 02:43:31;;;;;;;4.57;2.95;;;16.80;91.80;;;;;;5047324;28;20123;-80
2021/10/03 02:46:01;;;;;;;4.35;2.58;;;16.80;92.10;;;;;;5047946;28;20124;-79
2021/10/03 02:48:32;;;;;;;4.70;2.85;;;16.70;92.20;;;;;;5044936;28;20120;-80
2021/10/03 02:50:59;;;;;;;4.95;3.00;;;16.70;92.50;;;;;;5044310;28;20136;-79
2021/10/03 02:53:27;;;;;;;6.30;3.60;;;16.70;93.00;;;;;;5046460;28;20131;-78
2021/10/03 02:55:55;;;;;;;5.53;3.30;;;16.60;93.50;;;;;;5047873;28;20075;-76
2021/10/03 02:58:23;;;;;;;5.45;3.28;;;16.50;93.80;;;;;;5045324;28;20486;-77
2021/10/03 03:00:53;;;;;;;5.13;3.33;;;16.50;94.10;;;;;;5049730;28;20069;-78
2021/10/03 03:03:22;;;;;;;5.75;3.25;;;16.40;94.40;;;;;;5050834;28;20132;-78
2021/10/03 03:05:49;;;;;;;4.68;3.28;;;16.40;94.60;;;;;;5041540;28;20041;-77
2021/10/03 03:08:16;;;;;;;4.80;3.00;;;16.40;94.80;;;;;;5041132;28;20049;-76
2021/10/03 03:10:43;;;;;;;5.88;3.10;;;16.30;94.80;;;;;;5044222;28;20072;-79
2021/10/03 03:13:12;;;;;;;5.55;3.08;;;16.30;94.90;;;;;;5043822;28;20113;-79
2021/10/03 03:15:39;;;;;;;5.07;3.03;;;16.30;95.10;;;;;;5040548;28;20455;-77
2021/10/03 03:18:06;;;;;;;5.15;3.33;;;16.30;95.20;;;;;;5040762;28;20041;-79
2021/10/03 03:20:34;;;;;;;6.05;3.40;;;16.20;95.30;;;;;;5043679;28;20123;-79
2021/10/03 03:23:01;;;;;;;5.45;3.40;;;16.20;95.40;;;;;;5043969;28;20077;-77
2021/10/03 03:25:28;;;;;;;6.15;3.63;;;16.10;95.50;;;;;;5041012;28;20159;-77
2021/10/03 03:27:56;;;;;;;5.57;3.30;;;16.10;95.70;;;;;;5040184;28;20560;-77
2021/10/03 03:30:23;;;;;;;4.70;3.10;;;16.10;95.70;;;;;;5040548;28;20562;-77
2021/10/03 03:32:50;;;;;;;5.32;3.20;;;16.00;95.70;;;;;;5045371;28;20124;-77
2021/10/03 03:35:17;;;;;;;6.18;3.40;;;16.00;95.80;;;;;;5043276;28;20579;-79
2021/10/03 03:37:46;;;;;;;5.05;3.15;;;16.00;95.80;;;;;;5043627;28;20559;-75
2021/10/03 03:40:15;;;;;;;7.22;3.38;;;16.00;95.70;;;;;;5042723;28;20087;-79
2021/10/03 03:42:43;;;;;;;5.38;3.10;;;16.00;95.70;;;;;;5039830;28;20056;-79
2021/10/03 03:45:11;;;;;;;6.13;3.47;;;16.10;95.80;;;;;;5038908;28;20123;-76
2021/10/03 03:47:40;;;;;;;11.27;3.67;;;16.10;95.80;;;;;;5043316;28;20124;-79
2021/10/03 03:50:11;;;;;;;6.13;3.60;;;16.10;95.90;;;;;;5042993;28;20056;-78
2021/10/03 03:52:39;;;;;;;4.78;3.17;;;16.00;96.10;;;;;;5040021;28;20048;-79
2021/10/03 03:55:09;;;;;;;5.35;3.10;;;16.00;96.10;;;;;;5039738;28;20137;-77
2021/10/03 03:57:37;;;;;;;5.80;3.63;;;16.00;96.10;;;;;;5039752;28;20131;-79
2021/10/03 04:00:07;;;;;;;7.20;3.65;;;16.00;96.40;;;;;;5035974;28;20585;-77
2021/10/03 04:02:34;;;;;;;6.57;3.75;;;15.90;96.40;;;;;;5046413;28;20120;-79
2021/10/03 04:05:01;;;;;;;6.00;3.50;;;15.90;96.60;;;;;;5046925;28;20136;-80
2021/10/03 04:07:28;;;;;;;6.50;3.33;;;15.80;96.60;;;;;;5051083;28;20104;-77
2021/10/03 04:09:55;;;;;;;4.82;3.00;;;15.70;96.60;;;;;;5051653;28;20911;-77
2021/10/03 04:12:24;;;;;;;6.10;3.35;;;15.70;96.70;;;;;;5047687;28;20120;-79
2021/10/03 04:14:51;;;;;;;5.85;3.72;;;15.70;96.90;;;;;;5045806;28;20136;-78
2021/10/03 04:17:18;;;;;;;4.90;3.22;;;15.70;96.70;;;;;;5047449;28;20136;-81
2021/10/03 04:19:45;;;;;;;6.72;3.35;;;15.70;96.60;;;;;;5049532;28;20124;-77
2021/10/03 04:22:12;;;;;;;5.47;3.30;;;15.70;96.20;;;;;;5048985;28;20139;-80
2021/10/03 04:24:39;;;;;;;7.18;3.38;;;15.80;96.00;;;;;;5046348;28;20120;-78
2021/10/03 04:27:06;;;;;;;5.78;3.22;;;15.80;96.10;;;;;;5044161;28;20101;-76
2021/10/03 04:29:35;;;;;;;5.43;3.42;;;15.80;96.00;;;;;;5046232;28;20135;-78
2021/10/03 04:32:02;;;;;;;5.63;3.17;;;15.80;96.10;;;;;;5044479;28;20131;-79
2021/10/03 04:34:29;;;;;;;5.85;3.50;;;15.80;96.20;;;;;;5050779;28;20139;-78
2021/10/03 04:36:56;;;;;;;6.30;3.53;;;15.80;96.30;;;;;;5042748;28;20132;-80
2021/10/03 04:39:25;;;;;;;7.50;3.85;;;15.70;96.70;;;;;;5050424;28;20064;-80
2021/10/03 04:41:53;;;;;;;6.30;3.67;;;15.60;97.00;;;;;;5042320;28;20051;-79
2021/10/03 04:44:20;;;;;;;5.57;3.58;;;15.50;97.10;;;;;;5043624;28;20143;-76
2021/10/03 04:46:48;;;;;;;6.55;3.40;;;15.50;97.10;;;;;;5047773;28;20123;-79
2021/10/03 04:49:15;;;;;;;5.20;3.20;;;15.40;96.60;;;;;;5045894;28;20132;-79
2021/10/03 04:51:42;;;;;;;5.38;3.45;;;15.40;96.70;;;;;;5042468;28;20133;-79
2021/10/03 04:54:09;;;;;;;4.90;2.83;;;15.50;96.80;;;;;;5042071;28;20133;-78
2021/10/03 04:56:36;;;;;;;5.10;3.00;;;15.50;96.50;;;;;;5045497;28;20502;-79
2021/10/03 04:59:03;;;;;;;5.72;3.40;;;15.50;96.20;;;;;;5045504;28;20135;-78
2021/10/03 05:01:31;;;;;;;5.32;3.22;;;15.60;96.00;;;;;;5042324;28;20136;-79
2021/10/03 05:03:59;;;;;;;5.10;3.30;;;15.60;95.90;;;;;;5034158;28;20136;-79
2021/10/03 05:06:26;;;;;;;5.22;3.10;;;15.60;96.00;;;;;;5048270;28;20144;-79
2021/10/03 05:08:54;;;;;;;6.43;3.30;;;15.60;96.10;;;;;;5042430;28;20045;-77
2021/10/03 05:11:21;;;;;;;5.00;3.20;;;15.60;96.20;;;;;;5048408;28;20124;-79
2021/10/03 05:13:48;;;;;;;6.32;3.03;;;15.60;96.20;;;;;;5042231;28;20129;-79
2021/10/03 05:16:15;;;;;;;5.05;3.00;;;15.60;96.20;;;;;;5037326;28;20129;-80
2021/10/03 05:18:42;;;;;;;6.75;3.10;;;15.60;96.20;;;;;;5033937;28;20144;-80
2021/10/03 05:21:11;;;;;;;5.90;3.80;;;15.60;96.20;;;;;;5044806;28;20471;-78
2021/10/03 05:23:38;;;;;;;6.30;3.25;;;15.60;96.30;;;;;;5033680;28;20128;-79
2021/10/03 05:26:06;;;;;;;5.57;3.28;;;15.60;96.10;;;;;;5035828;28;20124;-79
2021/10/03 05:28:33;;;;;;;4.85;3.10;;;15.50;95.90;;;;;;5043898;28;20141;-77
2021/10/03 05:31:00;;;;;;;5.28;2.80;;;15.50;95.90;;;;;;5037929;28;20136;-77
2021/10/03 05:33:29;;;;;;;5.47;3.50;;;15.50;95.60;;;;;;5032466;28;20148;-79
2021/10/03 05:35:56;;;;;;;6.32;3.03;;;15.50;95.50;;;;;;5033634;28;20061;-77
2021/10/03 05:38:24;;;;;;;5.15;3.20;;;15.50;95.60;;;;;;5034232;28;20128;-78
2021/10/03 05:40:52;;;;;;;5.03;3.10;;;15.60;95.40;;;;;;5033432;28;20128;-80
2021/10/03 05:43:19;;;;;;;5.28;2.92;;;15.60;95.50;;;;;;5033289;28;20085;-77
2021/10/03 05:45:46;;;;;;;4.68;2.80;;;15.60;95.30;;;;;;5033223;28;20051;-79
2021/10/03 05:48:14;;;;;;;5.45;3.20;;;15.60;95.40;;;;;;5035684;28;20136;-80
2021/10/03 05:50:41;;;;;;;5.55;2.80;;;15.60;95.40;;;;;;5034998;28;20063;-79
2021/10/03 05:53:08;;;;;;;6.28;3.17;;;15.70;95.30;;;;;;5037923;28;20113;-79
2021/10/03 05:55:37;;;;;;;4.93;3.00;;;15.70;95.00;;;;;;5046537;28;20123;-78
2021/10/03 05:58:04;;;;;;;4.50;2.90;;;15.70;95.00;;;;;;5037949;28;20136;-78
2021/10/03 06:00:31;;;;;;;4.20;2.63;;;15.70;95.00;;;;;;5033437;28;20465;-79
2021/10/03 06:02:58;;;;;;;4.15;2.65;;;15.70;94.70;;;;;;5044113;28;20561;-78
2021/10/03 06:05:26;;;;;;;4.10;2.60;;;15.80;94.40;;;;;;5033989;28;20136;-79
2021/10/03 06:07:53;;;;;;;4.20;2.65;;;15.90;94.40;;;;;;5032565;28;20126;-79
2021/10/03 06:10:20;;;;;;;4.25;2.50;;;15.90;94.40;;;;;;5033055;28;20459;-79
2021/10/03 06:12:48;;;;;;;5.18;2.60;;;16.00;94.30;;;;;;5039808;28;20128;-79
2021/10/03 06:15:16;;;;;;;4.40;2.50;;;16.00;94.10;;;;;;5043879;28;20135;-78
2021/10/03 06:17:43;;;;;;;4.65;2.65;;;16.10;94.00;;;;;;5033050;28;20128;-79
2021/10/03 06:20:12;;;;;;;4.88;2.80;;;16.20;94.10;;;;;;5041179;28;20055;-79
2021/10/03 06:22:40;;;;;;;5.25;2.97;;;16.20;94.20;;;;;;5037300;28;20558;-79
2021/10/03 06:25:08;;;;;;;5.03;2.70;;;16.20;94.20;;;;;;5043975;28;20540;-79
2021/10/03 06:27:35;;;;;;;4.78;2.72;;;16.20;94.00;;;;;;5043983;28;20127;-79
2021/10/03 06:30:05;;;;;;;4.47;2.50;;;16.20;93.80;;;;;;5038988;28;20137;-80
2021/10/03 06:32:33;;;;;;;3.63;2.20;;;16.30;93.50;;;;;;5043854;28;20132;-80
2021/10/03 06:35:00;;;;;;;3.88;2.20;;;16.40;93.20;;;;;;5041380;28;20579;-80
2021/10/03 06:37:27;;;;;;;4.38;2.40;;;16.50;93.10;;;;;;5040512;28;20242;-79
2021/10/03 06:39:54;;;;;;;4.38;2.60;;;16.60;93.10;;;;;;5034930;28;20128;-80
2021/10/03 06:42:21;;;;;;;3.83;2.42;;;16.60;93.20;;;;;;5042854;28;20137;-78
2021/10/03 06:44:48;;;;;;;4.45;2.20;;;16.70;93.10;;;;;;5032590;28;20119;-80
2021/10/03 06:47:16;;;;;;;3.83;2.13;;;16.80;92.80;;;;;;5035137;28;20073;-78
2021/10/03 06:49:44;;;;;;;3.83;2.53;;;16.90;92.40;;;;;;5049899;28;20730;-80
2021/10/03 06:52:12;;;;;;;4.30;2.10;;;17.00;92.40;;;;;;5051552;28;20141;-78
2021/10/03 06:54:39;;;;;;;4.63;2.30;;;17.10;92.60;;;;;;5034972;28;20509;-79
2021/10/03 06:57:06;;;;;;;3.75;2.03;;;17.20;92.40;;;;;;5050492;28;20100;-80
2021/10/03 06:59:34;;;;;;;4.22;2.50;;;17.20;92.30;;;;;;5051634;28;20048;-80
2021/10/03 07:02:04;;;;;;;4.95;2.35;;;17.20;92.30;;;;;;5056334;28;20159;-78
2021/10/03 07:04:33;;;;;;;3.85;2.22;;;17.30;92.40;;;;;;5040396;28;20128;-80
2021/10/03 07:07:01;;;;;;;4.47;2.33;;;17.30;92.10;;;;;;5042939;28;20065;-79
2021/10/03 07:09:28;;;;;;;3.83;2.30;;;17.40;92.00;;;;;;5040458;28;20124;-79
2021/10/03 07:11:55;;;;;;;4.57;2.35;;;17.40;91.70;;;;;;5040033;28;20128;-79
2021/10/03 07:14:23;;;;;;;3.70;2.10;;;17.50;91.40;;;;;;5040925;28;20111;-79
2021/10/03 07:16:50;;;;;;;3.67;2.10;;;17.60;91.20;;;;;;5040259;28;20129;-79
2021/10/03 07:19:17;;;;;;;3.55;2.33;;;17.60;91.60;;;;;;5041553;28;20221;-79
2021/10/03 07:21:46;;;;;;;4.03;2.13;;;17.70;91.80;;;;;;5045393;28;20136;-80
2021/10/03 07:24:13;;;;;;;4.00;2.10;;;17.70;91.50;;;;;;5039807;28;20051;-81
2021/10/03 07:26:40;;;;;;;3.95;2.10;;;17.80;91.30;;;;;;5036161;28;20125;-78
2021/10/03 07:29:08;;;;;;;3.95;2.00;;;17.90;91.10;;;;;;5053849;28;20123;-78
2021/10/03 07:31:36;;;;;;;3.65;1.60;;;17.90;90.90;;;;;;5046278;28;20128;-80
2021/10/03 07:34:03;;;;;;;3.53;2.10;;;18.00;90.80;;;;;;5037956;28;20124;-78
2021/10/03 07:36:30;;;;;;;4.35;2.17;;;18.00;91.20;;;;;;5037171;28;20156;-81
2021/10/03 07:38:59;;;;;;;4.65;2.60;;;18.00;91.30;;;;;;5046249;28;20577;-80
2021/10/03 07:41:27;;;;;;;4.25;2.47;;;18.00;91.40;;;;;;5052831;28;20127;-80
2021/10/03 07:43:54;;;;;;;4.57;2.40;;;18.10;91.40;;;;;;5045637;28;20128;-79
2021/10/03 07:46:22;;;;;;;5.25;2.65;;;18.10;91.60;;;;;;5044938;28;20044;-78
2021/10/03 07:48:49;;;;;;;4.55;2.45;;;18.20;91.90;;;;;;5044271;28;20069;-78
2021/10/03 07:51:16;;;;;;;5.20;2.42;;;18.20;91.80;;;;;;5044805;28;20084;-79
2021/10/03 07:53:45;;;;;;;3.75;2.10;;;18.20;91.50;;;;;;5040746;28;20123;-79
2021/10/03 07:56:14;;;;;;;3.60;1.95;;;18.20;91.50;;;;;;5042648;28;20124;-80
2021/10/03 07:58:42;;;;;;;4.20;2.38;;;18.20;91.50;;;;;;5043337;28;20122;-80
2021/10/03 08:01:09;;;;;;;3.25;1.80;;;18.30;91.70;;;;;;5043239;28;20485;-78
2021/10/03 08:03:37;;;;;;;3.40;2.00;;;18.30;91.80;;;;;;5036389;28;20127;-79
2021/10/03 08:06:05;;;;;;;3.33;1.85;;;18.30;92.00;;;;;;5050168;28;20041;-79
2021/10/03 08:08:32;;;;;;;3.13;1.80;;;18.40;91.50;;;;;;5045889;28;20470;-80
2021/10/03 08:10:59;;;;;;;3.53;1.90;;;18.50;91.30;;;;;;5046078;28;20045;-78
2021/10/03 08:13:27;;;;;;;3.83;1.80;;;18.50;91.10;;;;;;5039257;28;20143;-79
2021/10/03 08:15:54;;;;;;;3.10;1.75;;;18.60;90.90;;;;;;5046363;28;20135;-79
2021/10/03 08:18:21;;;;;;;2.90;1.65;;;18.70;90.20;;;;;;5041954;28;20478;-78
2021/10/03 08:20:51;;;;;;;3.53;1.73;;;18.80;88.60;;;;;;5047712;28;20487;-78
2021/10/03 08:23:18;;;;;;;2.75;1.30;;;18.90;87.20;;;;;;5048681;28;20045;-79
2021/10/03 08:25:46;;;;;;;3.60;1.80;;;19.10;86.00;;;;;;5045374;28;20125;-79
2021/10/03 08:28:14;;;;;;;7.07;3.47;;;19.20;84.50;;;;;;5044487;28;20132;-79
2021/10/03 08:30:42;;;;;;;6.78;3.40;;;19.30;83.20;;;;;;5040971;28;20133;-80
2021/10/03 08:33:09;;;;;;;6.07;3.60;;;19.40;82.40;;;;;;5035047;28;20124;-80
2021/10/03 08:35:36;;;;;;;6.30;2.60;;;19.50;81.20;;;;;;5034341;28;20136;-79
2021/10/03 08:38:04;;;;;;;3.88;1.90;;;19.60;80.70;;;;;;5045930;28;20127;-79
2021/10/03 08:40:31;;;;;;;3.42;1.77;;;19.70;79.60;;;;;;5035240;28;20582;-79
2021/10/03 08:42:58;;;;;;;3.28;1.80;;;19.80;78.50;;;;;;5035203;28;20124;-83
2021/10/03 08:45:25;;;;;;;3.80;1.40;;;19.90;76.90;;;;;;5046380;28;20080;-79
2021/10/03 08:47:54;;;;;;;3.33;1.50;;;20.00;76.00;;;;;;5056383;28;20076;-78
2021/10/03 08:50:21;;;;;;;4.32;1.38;;;20.10;74.50;;;;;;5059421;28;20084;-78
2021/10/03 08:52:49;;;;;;;2.70;1.40;;;20.20;73.70;;;;;;5059039;28;20084;-81
2021/10/03 08:55:17;;;;;;;3.00;1.63;;;20.30;73.00;;;;;;5058792;28;20081;-77
2021/10/03 08:57:45;;;;;;;3.10;1.60;;;20.40;74.40;;;;;;5059878;28;20064;-78
2021/10/03 09:00:17;;;;;;;3.55;1.73;;;20.40;75.90;;;;;;5060222;28;20537;-80
2021/10/03 09:03:05;;;;;;;4.00;2.30;;;20.40;76.60;;;;;;5068736;28;20051;-79
2021/10/03 09:05:34;;;;;;;4.35;2.30;;;20.40;77.60;;;;;;5059935;28;20041;-79
2021/10/03 09:08:08;;;;;;;3.55;1.65;;;20.40;77.20;;;;;;5058852;28;20132;-79
2021/10/03 09:10:58;;;;;;;2.90;1.60;;;20.40;75.60;;;;;;5052176;28;20049;-78
2021/10/03 09:13:42;;;;;;;7.15;1.40;;;20.50;74.30;;;;;;5048429;28;20464;-78
2021/10/03 09:16:12;;;;;;;2.80;1.50;;;20.50;72.40;;;;;;5053298;28;20530;-78
2021/10/03 09:18:48;;;;;;;3.15;1.60;;;20.60;72.30;;;;;;5041887;28;20128;-78
2021/10/03 09:21:38;;;;;;;3.22;1.58;;;20.60;72.60;;;;;;5056055;28;20084;-78
2021/10/03 09:24:08;;;;;;;2.90;1.52;;;20.70;72.80;;;;;;5042021;28;20048;-76
2021/10/03 09:26:37;;;;;;;3.15;1.77;;;20.70;72.20;;;;;;5042027;28;20231;-79
2021/10/03 09:29:24;;;;;;;3.80;1.85;;;20.70;71.90;;;;;;5039548;28;20145;-80
2021/10/03 09:32:13;;;;;;;3.42;1.75;;;20.80;71.70;;;;;;5040216;28;20136;-77
2021/10/03 09:34:47;;;;;;;3.58;1.70;;;20.80;71.30;;;;;;5035240;28;20081;-76
2021/10/03 09:37:23;;;;;;;2.92;1.63;;;20.90;70.90;;;;;;5051630;28;20053;-77
2021/10/03 09:39:52;;;;;;;3.10;1.40;;;20.90;70.70;;;;;;5035553;28;20161;-78
2021/10/03 09:42:20;;;;;;;2.90;1.35;;;20.90;70.60;;;;;;5049605;28;20386;-76
2021/10/03 09:45:10;;;;;;;3.80;1.67;;;21.00;71.00;;;;;;5050344;28;20619;-77
2021/10/03 09:47:38;;;;;;;3.17;1.50;;;21.00;71.00;;;;;;5045052;28;20136;-77
2021/10/03 09:50:10;;;;;;;3.55;1.58;;;21.10;71.30;;;;;;5040737;28;20059;-77
2021/10/03 09:52:39;;;;;;;2.70;1.35;;;21.10;70.60;;;;;;5039665;28;20140;-79
2021/10/03 09:55:13;;;;;;;2.67;1.40;;;21.20;70.50;;;;;;5038401;28;20127;-79
2021/10/03 09:57:40;;;;;;;;;;;21.20;70.10;;;;;;5038401;28;20041;-77
2021/10/03 10:00:09;;;;;;;2.88;1.40;;;21.20;69.20;;;;;;5044977;28;20019;-77
2021/10/03 10:02:36;;;;;;;2.78;1.40;;;21.30;68.80;;;;;;5045063;28;20083;-76
2021/10/03 10:05:04;;;;;;;2.75;1.35;;;21.40;68.40;;;;;;5051942;28;20041;-77
2021/10/03 10:07:33;;;;;;;3.10;1.50;;;21.40;67.40;;;;;;5048359;28;20052;-76
2021/10/03 10:10:01;;;;;;;3.00;1.50;;;21.40;67.40;;;;;;5051334;28;20083;-78
2021/10/03 10:12:29;;;;;;;2.53;1.30;;;21.50;67.00;;;;;;5055115;28;20088;-78
2021/10/03 10:15:01;;;;;;;3.47;1.10;;;21.50;66.20;;;;;;5048357;28;20132;-78
2021/10/03 10:17:30;;;;;;;3.15;1.65;;;21.60;66.30;;;;;;5042130;28;20108;-75
2021/10/03 10:19:58;;;;;;;3.30;2.00;;;21.60;66.10;;;;;;5044409;28;20048;-78
2021/10/03 10:22:35;;;;;;;3.78;1.80;;;21.80;65.20;;;;;;5037612;28;20141;-78
2021/10/03 10:25:11;;;;;;;3.65;2.10;;;21.90;64.90;;;;;;5043956;28;20041;-78
2021/10/03 10:28:11;;;;;;;3.78;1.70;;;21.90;64.70;;;;;;5041824;28;20135;-75
2021/10/03 10:31:07;;;;;;;3.80;1.75;;;22.00;64.30;;;;;;5036895;28;20045;-78
2021/10/03 10:34:11;;;;;;;8.25;4.53;;;22.10;63.70;;;;;;5043800;28;20068;-80
2021/10/03 10:36:54;;;;;;;10.50;5.82;;;22.10;63.40;;;;;;5017788;28;20509;-80
2021/10/03 10:39:25;;;;;;;5.22;2.83;;;22.20;63.00;;;;;;5024336;28;20068;-80
2021/10/03 10:41:56;;;;;;;3.80;1.80;;;22.20;62.40;;;;;;5023055;28;20041;-78
2021/10/03 10:44:44;;;;;;;4.25;1.50;;;22.30;62.90;;;;;;5043774;28;20132;-83
2021/10/03 10:47:21;;;;;;;3.05;1.35;;;22.30;62.20;;;;;;5034830;28;20087;-79
2021/10/03 10:49:54;;;;;;;3.00;1.40;;;22.40;62.20;;;;;;5039773;28;20064;-78
2021/10/03 10:52:36;;;;;;;3.95;1.50;;;22.40;61.90;;;;;;5041929;28;20133;-78
2021/10/03 10:55:27;;;;;;;3.80;1.50;;;22.50;62.10;;;;;;5041922;28;20569;-78
2021/10/03 10:58:19;;;;;;;3.30;1.60;;;22.50;61.30;;;;;;5044580;28;20124;-80
2021/10/03 11:01:15;;;;;;;2.50;1.30;;;22.50;61.60;;;;;;5044103;28;20044;-79
2021/10/03 11:04:06;;;;;;;5.03;1.40;;;22.60;61.20;;;;;;5045133;28;20069;-78
2021/10/03 11:07:04;;;;;;;2.88;1.52;;;22.60;60.80;;;;;;5039184;28;20072;-79
2021/10/03 11:09:37;;;;;;;3.38;1.60;;;22.60;60.90;;;;;;5043883;28;20061;-79
2021/10/03 11:12:09;;;;;;;3.97;1.60;;;22.60;59.90;;;;;;5043361;28;20052;-80
2021/10/03 11:14:41;;;;;;;4.28;1.65;;;22.60;60.10;;;;;;5040139;28;20071;-80
2021/10/03 11:17:13;;;;;;;3.80;1.58;;;22.60;60.10;;;;;;5046597;28;20052;-79
2021/10/03 11:19:44;;;;;;;2.97;1.55;;;22.60;59.70;;;;;;5046691;28;20045;-78
2021/10/03 11:22:15;;;;;;;3.67;1.80;;;22.60;59.70;;;;;;5048033;28;20128;-78
2021/10/03 11:24:47;;;;;;;3.25;1.70;;;22.60;60.80;;;;;;5036824;28;20124;-79
2021/10/03 11:27:19;;;;;;;3.10;1.60;;;22.60;61.30;;;;;;5043970;28;20053;-79
2021/10/03 11:29:49;;;;;;;2.80;1.48;;;22.60;62.70;;;;;;5046569;28;20083;-79
2021/10/03 11:32:18;;;;;;;3.67;1.73;;;22.60;63.40;;;;;;5038233;28;20509;-80
2021/10/03 11:34:49;;;;;;;2.88;1.52;;;22.60;63.70;;;;;;5047644;28;20124;-77
2021/10/03 11:37:21;;;;;;;3.25;1.50;;;22.60;64.00;;;;;;5045842;28;20131;-78
2021/10/03 11:39:51;;;;;;;2.80;1.40;;;22.50;64.40;;;;;;5042988;28;20137;-78
2021/10/03 11:42:31;;;;;;;3.17;1.50;;;22.50;65.00;;;;;;5042776;28;20049;-80
2021/10/03 11:45:00;;;;;;;2.85;1.50;;;22.50;64.00;;;;;;5043399;28;20133;-78
2021/10/03 11:47:28;;;;;;;2.88;1.30;;;22.50;63.80;;;;;;5050527;28;20084;-78
2021/10/03 11:50:01;;;;;;;4.22;1.58;;;22.40;62.40;;;;;;5041996;28;20061;-78
2021/10/03 11:52:34;;;;;;;2.80;1.40;;;22.50;61.60;;;;;;5046523;28;20052;-77
2021/10/03 11:55:05;;;;;;;2.97;1.67;;;22.50;62.50;;;;;;5046624;28;20041;-79
2021/10/03 11:57:38;;;;;;;4.43;2.20;;;22.50;62.80;;;;;;5048609;28;20128;-80
2021/10/03 12:00:19;;;;;;;4.43;2.30;;;22.50;63.00;;;;;;5042992;28;20530;-80
2021/10/03 12:02:49;;;;;;;4.30;2.40;;;22.60;62.70;;;;;;5044730;28;20072;-78
2021/10/03 12:05:23;;;;;;;3.65;1.88;;;22.60;62.40;;;;;;5044585;28;20469;-78
2021/10/03 12:08:05;;;;;;;3.22;1.60;;;22.60;62.30;;;;;;5046305;28;20481;-79
2021/10/03 12:10:42;;;;;;;2.90;1.38;;;22.60;62.10;;;;;;5043290;28;20053;-79
2021/10/03 12:13:17;;;;;;;4.88;1.70;;;22.60;62.00;;;;;;5043067;28;20128;-80
2021/10/03 12:15:59;;;;;;;2.85;1.40;;;22.60;62.00;;;;;;5046495;28;20140;-80
2021/10/03 12:18:44;;;;;;;3.13;1.50;;;22.60;61.70;;;;;;5044885;28;20056;-79
2021/10/03 12:21:22;;;;;;;4.32;1.92;;;22.60;61.80;;;;;;5038187;28;20133;-80
2021/10/03 12:24:03;;;;;;;3.50;1.67;;;22.60;61.80;;;;;;5040439;28;20128;-78
2021/10/03 12:26:34;;;;;;;3.88;1.75;;;22.60;61.60;;;;;;5048666;28;20057;-79
2021/10/03 12:29:24;;;;;;;3.58;1.70;;;22.70;61.80;;;;;;5042440;28;20135;-80
2021/10/03 12:32:00;;;;;;;2.78;1.40;;;22.70;61.40;;;;;;5043947;28;20045;-80
2021/10/03 12:34:38;;;;;;;2.67;1.50;;;22.70;61.00;;;;;;5050422;28;20055;-78
2021/10/03 12:37:08;;;;;;;2.53;1.27;;;22.70;60.70;;;;;;5049024;28;20048;-79
2021/10/03 12:39:37;;;;;;;2.83;1.48;;;22.80;60.90;;;;;;5033700;28;20045;-77
2021/10/03 12:42:09;;;;;;;3.80;2.08;;;22.80;62.60;;;;;;5038860;28;20103;-76
2021/10/03 12:44:40;;;;;;;3.10;1.70;;;22.80;62.40;;;;;;5039016;28;20136;-77
2021/10/03 12:47:09;;;;;;;4.10;2.22;;;22.90;63.20;;;;;;5038635;28;20041;-80
2021/10/03 12:49:36;;;;;;;4.60;2.20;;;22.90;65.10;;;;;;5035382;28;20110;-79
2021/10/03 12:52:06;;;;;;;3.92;2.30;;;22.90;66.10;;;;;;5042564;28;20083;-78
2021/10/03 12:54:34;;;;;;;4.05;2.17;;;22.90;66.00;;;;;;5041636;28;20132;-78
2021/10/03 12:57:03;;;;;;;3.53;1.75;;;22.90;66.50;;;;;;5035561;28;20132;-78
2021/10/03 12:59:31;;;;;;;3.67;1.75;;;22.90;64.60;;;;;;5041376;28;20103;-79
2021/10/03 13:02:00;;;;;;;3.00;1.60;;;22.80;65.20;;;;;;5042054;28;20558;-78